< < Back
Terminal Aerodrome Forecast


Current Version              Previous Versions:   1  2  3  4  5  6  7  8  9  

Terminal Aerodrome Forecast

262
FTUS44 KBMX 281725
TAFBHM
TAF
KBHM 281725Z 2818/2918 32006KT 6SM SHRA VCTS SCT050CB
     FM290200 VRB03KT P6SM SCT250=

Latest METAR

277
SAUS70 KWBC 290000
MTRBHM
METAR KBHM 282353Z 10003KT 10SM FEW070 SCT150 32/23 A2999 RMK AO2 LTG
DSNT S SLP145 60000 T03170233 10350 20294 51003


USA.gov is the U.S. government's official web portal to all federal, state and local government web resources and services.